createdAt,value
2022-09-07T00:06:41.614Z,17.91
2022-09-07T00:14:15.184Z,17.88
2022-09-07T00:21:50.294Z,17.80
2022-09-07T00:29:24.153Z,17.67
2022-09-07T00:36:59.284Z,17.66
2022-09-07T00:44:51.566Z,17.64
2022-09-07T00:52:30.135Z,17.60
2022-09-07T01:00:06.664Z,17.60
2022-09-07T01:07:42.500Z,17.53
2022-09-07T01:15:16.378Z,17.47
2022-09-07T01:23:22.366Z,17.15
2022-09-07T01:31:00.210Z,16.83
2022-09-07T01:38:42.187Z,16.72
2022-09-07T01:46:22.061Z,16.66
2022-09-07T01:54:00.183Z,16.59
2022-09-07T02:01:40.256Z,16.56
2022-09-07T02:09:20.878Z,16.48
2022-09-07T02:17:00.015Z,16.40
2022-09-07T02:24:38.146Z,16.42
2022-09-07T02:32:13.342Z,16.20
2022-09-07T02:39:47.835Z,16.12
2022-09-07T02:47:35.016Z,16.09
2022-09-07T02:55:18.785Z,16.19
2022-09-07T03:03:09.093Z,16.21
2022-09-07T03:10:44.203Z,16.20
2022-09-07T03:18:19.365Z,16.07
2022-09-07T03:25:53.159Z,16.05
2022-09-07T03:33:28.268Z,15.98
2022-09-07T03:41:02.505Z,15.92
2022-09-07T03:48:39.132Z,15.81
2022-09-07T03:56:19.319Z,15.69
2022-09-07T04:04:01.773Z,15.46
2022-09-07T04:11:36.141Z,15.48
2022-09-07T04:19:11.288Z,15.27
2022-09-07T04:26:45.616Z,15.32
2022-09-07T04:34:20.773Z,15.39
2022-09-07T04:41:54.997Z,15.31
2022-09-07T04:49:30.429Z,15.19
2022-09-07T04:57:04.267Z,15.24
2022-09-07T05:04:39.458Z,15.18
2022-09-07T05:12:13.179Z,15.25
2022-09-07T05:19:49.226Z,15.23
2022-09-07T05:27:23.050Z,15.39
2022-09-07T05:34:58.228Z,15.46
2022-09-07T05:42:31.923Z,15.58
2022-09-07T05:50:08.996Z,15.70
2022-09-07T05:57:42.993Z,15.87
2022-09-07T06:05:18.591Z,15.96
2022-09-07T06:12:53.542Z,16.10
2022-09-07T06:20:28.788Z,16.24
2022-09-07T06:28:02.666Z,16.47
2022-09-07T06:35:37.905Z,16.53
2022-09-07T06:43:11.721Z,16.54
2022-09-07T06:50:56.319Z,16.66
2022-09-07T06:58:30.375Z,16.75
2022-09-07T07:06:06.513Z,17.03
2022-09-07T07:13:41.628Z,17.29
2022-09-07T07:21:17.036Z,17.64
2022-09-07T07:29:00.777Z,17.89
2022-09-07T07:36:37.567Z,17.95
2022-09-07T07:44:13.270Z,18.17
2022-09-07T07:59:42.482Z,19.34
2022-09-07T08:07:18.800Z,19.85
2022-09-07T08:14:54.066Z,20.38
2022-09-07T08:22:32.983Z,20.86
2022-09-07T08:30:10.582Z,21.16
2022-09-07T08:37:45.691Z,21.59
2022-09-07T08:45:24.302Z,21.75
2022-09-07T08:53:03.294Z,22.05
2022-09-07T09:00:39.414Z,22.60
2022-09-07T09:08:28.387Z,22.76
2022-09-07T09:16:07.075Z,22.78
2022-09-07T09:23:44.395Z,23.26
2022-09-07T09:31:20.222Z,23.53
2022-09-07T09:38:56.433Z,23.80
2022-09-07T09:46:33.557Z,24.11
2022-09-07T09:54:24.176Z,23.99
2022-09-07T10:09:55.579Z,23.62
2022-09-07T10:17:31.794Z,23.45
2022-09-07T10:25:30.523Z,23.21
2022-09-07T10:33:09.115Z,23.23
2022-09-07T10:40:48.580Z,23.15
2022-09-07T10:48:31.090Z,23.09
2022-09-07T10:56:10.898Z,22.99
2022-09-07T11:03:58.243Z,23.06
2022-09-07T11:19:38.160Z,23.45
2022-09-07T11:27:19.995Z,23.52
2022-09-07T11:34:58.581Z,23.49
2022-09-07T11:42:45.993Z,23.52
2022-09-07T11:50:23.082Z,23.56
2022-09-07T11:58:25.052Z,23.63
2022-09-07T12:06:22.205Z,23.82
2022-09-07T12:14:16.308Z,24.07
2022-09-07T12:21:56.911Z,23.94
2022-09-07T12:29:32.651Z,23.96
2022-09-07T12:37:44.780Z,23.81
2022-09-07T12:45:56.637Z,23.80
2022-09-07T12:53:35.550Z,23.81
2022-09-07T13:01:21.357Z,23.85
2022-09-07T13:09:30.489Z,23.90
2022-09-07T13:17:41.595Z,24.01
2022-09-07T13:25:48.310Z,24.05
2022-09-07T13:33:48.518Z,24.13
2022-09-07T13:41:27.033Z,24.23
2022-09-07T13:49:08.227Z,24.34
2022-09-07T13:56:54.076Z,24.39
2022-09-07T14:04:36.072Z,24.37
2022-09-07T14:12:16.912Z,24.47
2022-09-07T14:19:51.922Z,24.50
2022-09-07T14:27:33.561Z,24.59
2022-09-07T14:35:12.792Z,24.59
2022-09-07T14:42:49.813Z,24.62
2022-09-07T14:50:27.531Z,24.98
2022-09-07T14:58:23.126Z,25.10
2022-09-07T15:06:01.204Z,25.38
2022-09-07T15:13:39.936Z,25.70
2022-09-07T15:21:13.737Z,25.68
2022-09-07T15:36:45.019Z,25.49
2022-09-07T15:44:25.025Z,25.33
2022-09-07T15:52:07.110Z,25.25
2022-09-07T15:59:42.208Z,25.04
2022-09-07T16:07:15.886Z,25.00
2022-09-07T16:14:56.435Z,24.91
2022-09-07T16:30:26.087Z,24.62
2022-09-07T16:46:04.666Z,24.47
2022-09-07T16:53:39.739Z,24.39
2022-09-07T17:01:17.383Z,24.25
2022-09-07T17:08:51.503Z,24.12
2022-09-07T17:16:28.898Z,24.06
2022-09-07T17:24:04.207Z,23.71
2022-09-07T17:39:33.877Z,23.24
2022-09-07T17:47:09.415Z,23.03
2022-09-07T17:54:43.032Z,22.62
2022-09-07T18:02:18.028Z,22.25
2022-09-07T18:09:52.564Z,22.10
2022-09-07T18:17:28.151Z,21.83
2022-09-07T18:25:03.479Z,21.84
2022-09-07T18:32:38.768Z,21.62
2022-09-07T18:40:12.707Z,21.63
2022-09-07T18:47:47.898Z,21.49
2022-09-07T18:55:21.748Z,21.34
2022-09-07T19:02:56.770Z,21.29
2022-09-07T19:10:30.526Z,21.24
2022-09-07T19:18:06.564Z,21.22
2022-09-07T19:25:43.149Z,21.10
2022-09-07T19:33:18.580Z,21.13
2022-09-07T19:40:58.873Z,21.08
2022-09-07T19:48:33.913Z,21.04
2022-09-07T19:56:09.627Z,21.02
2022-09-07T20:03:46.449Z,21.05
2022-09-07T20:11:20.336Z,21.03
2022-09-07T20:18:55.628Z,20.94
2022-09-07T20:26:30.331Z,20.90
2022-09-07T20:34:05.514Z,20.87
2022-09-07T20:41:39.304Z,20.81
2022-09-07T20:49:14.405Z,20.78
2022-09-07T20:56:48.087Z,20.74
2022-09-07T21:04:26.426Z,20.72
2022-09-07T21:12:00.078Z,20.66
2022-09-07T21:19:36.887Z,20.56
2022-09-07T21:27:10.490Z,20.35
2022-09-07T21:34:45.511Z,20.28
2022-09-07T21:42:19.017Z,20.25
2022-09-07T21:49:54.155Z,20.19
2022-09-07T21:57:27.954Z,20.04
2022-09-07T22:05:02.967Z,19.95
2022-09-07T22:12:36.714Z,19.86
2022-09-07T22:20:12.855Z,19.76
2022-09-07T22:27:46.549Z,19.66
2022-09-07T22:35:22.030Z,19.49
2022-09-07T22:42:55.643Z,19.44
2022-09-07T22:50:30.696Z,19.34
2022-09-07T22:58:04.183Z,19.25
2022-09-07T23:05:39.676Z,19.18
2022-09-07T23:13:16.802Z,19.17
2022-09-07T23:20:52.005Z,19.07
2022-09-07T23:28:25.525Z,19.00
2022-09-07T23:36:03.167Z,18.96
2022-09-07T23:43:36.974Z,18.84
2022-09-07T23:51:12.888Z,18.76
2022-09-07T23:58:46.578Z,18.62
